Time;durP1;ratioP1;P1;durP2;ratioP2;P2;SDS_P1;SDS_P2;PMS_P1;PMS_P2;Temp;Humidity;BMP_temperature;BMP_pressure;BME280_temperature;BME280_humidity;BME280_pressure;Samples;Min_cycle;Max_cycle;Signal;HPM_P1;HPM_P2
2023/04/27 00:02:07;;;;;;;;;11.00;8.50;;;;;15.91;53.49;101110.19;5034988;28;45429;-58
2023/04/27 00:04:33;;;;;;;;;9.00;8.00;;;;;15.81;54.62;101102.47;5034134;28;45522;-59
2023/04/27 00:06:58;;;;;;;;;8.00;8.00;;;;;15.89;55.24;101114.31;5034225;28;46428;-58
2023/04/27 00:09:24;;;;;;;;;7.50;6.00;;;;;15.91;53.52;101112.94;5034235;28;45336;-58
2023/04/27 00:11:49;;;;;;;;;10.75;7.75;;;;;15.86;55.12;101112.84;5034046;28;45289;-58
2023/04/27 00:14:15;;;;;;;;;10.00;8.75;;;;;15.88;54.72;101107.91;5034324;28;45584;-58
2023/04/27 00:16:41;;;;;;;;;8.80;8.80;;;;;15.78;54.39;101108.50;5033783;28;46527;-58
2023/04/27 00:19:07;;;;;;;;;11.75;8.25;;;;;15.75;55.62;101106.22;5034126;28;45748;-58
2023/04/27 00:21:33;;;;;;;;;11.60;11.60;;;;;15.80;51.91;101111.84;5066163;28;45324;-58
2023/04/27 00:23:59;;;;;;;;;15.60;11.60;;;;;15.65;55.19;101097.63;5034174;28;45534;-58
2023/04/27 00:26:25;;;;;;;;;9.75;9.00;;;;;15.76;54.20;101105.13;5034098;28;46056;-58
2023/04/27 00:28:51;;;;;;;;;16.40;13.20;;;;;15.78;55.17;101096.56;5065817;28;45411;-58
2023/04/27 00:31:16;;;;;;;;;11.25;11.25;;;;;15.82;54.94;101095.03;5034505;28;45432;-58
2023/04/27 00:33:42;;;;;;;;;11.50;10.75;;;;;15.85;55.69;101095.38;5034144;28;45282;-58
2023/04/27 00:36:08;;;;;;;;;9.25;9.25;;;;;15.78;54.06;101079.97;5033946;28;45354;-58
2023/04/27 00:38:33;;;;;;;;;9.50;9.50;;;;;15.74;55.13;101084.31;4999741;28;45405;-59
2023/04/27 00:41:02;;;;;;;;;9.50;8.00;;;;;15.83;55.45;101083.72;4947328;28;45401;-58
2023/04/27 00:43:28;;;;;;;;;12.60;8.20;;;;;15.88;55.67;101085.75;4933301;28;45362;-59
2023/04/27 00:45:53;;;;;;;;;9.75;8.00;;;;;15.82;55.81;101070.97;4947243;28;47705;-58
2023/04/27 00:48:19;;;;;;;;;9.00;8.75;;;;;15.84;55.73;101067.94;4933074;28;45382;-60
2023/04/27 00:50:45;;;;;;;;;8.00;8.00;;;;;15.78;53.94;101050.38;4933202;28;45413;-58
2023/04/27 00:53:10;;;;;;;;;8.00;8.00;;;;;15.49;54.04;101039.16;4933883;28;45365;-58
2023/04/27 00:55:36;;;;;;;;;12.50;8.75;;;;;15.78;53.62;101079.97;4935810;28;45621;-60
2023/04/27 00:58:01;;;;;;;;;7.75;7.25;;;;;15.74;55.08;101073.25;4950221;28;46543;-58
2023/04/27 01:00:27;;;;;;;;;7.50;7.50;;;;;15.78;55.53;101078.06;4935882;28;45353;-58
2023/04/27 01:02:52;;;;;;;;;12.25;8.00;;;;;15.67;55.32;101067.81;4936075;28;45449;-60
2023/04/27 01:05:18;;;;;;;;;13.50;12.50;;;;;15.77;56.19;101072.75;4949842;28;45477;-60
2023/04/27 01:07:44;;;;;;;;;11.25;9.25;;;;;15.86;55.44;101077.69;4950326;28;45156;-57
2023/04/27 01:10:09;;;;;;;;;7.75;7.00;;;;;15.91;55.35;101078.91;4934213;28;45297;-60
2023/04/27 01:12:35;;;;;;;;;8.00;8.00;;;;;15.89;53.70;101075.53;4934811;28;45671;-58
2023/04/27 01:15:00;;;;;;;;;6.25;6.00;;;;;15.86;54.42;101074.94;4935340;28;45410;-58
2023/04/27 01:17:26;;;;;;;;;8.25;8.25;;;;;15.88;55.48;101077.47;4934846;28;45325;-58
2023/04/27 01:19:54;;;;;;;;;8.50;7.25;;;;;15.91;55.34;101078.91;4935528;28;45356;-58
2023/04/27 01:22:20;;;;;;;;;6.80;6.00;;;;;15.94;55.11;101082.06;4935378;28;45592;-59
2023/04/27 01:24:46;;;;;;;;;3.00;3.00;;;;;15.93;53.84;101076.78;4949918;28;47743;-59
2023/04/27 01:27:12;;;;;;;;;10.75;8.00;;;;;15.88;54.80;101084.91;4934059;28;45386;-58
2023/04/27 01:29:38;;;;;;;;;6.00;6.00;;;;;15.89;54.74;101083.84;4935221;28;45402;-58
2023/04/27 01:32:03;;;;;;;;;8.25;6.50;;;;;15.76;54.72;101062.78;4933904;28;45632;-58
2023/04/27 01:34:29;;;;;;;;;6.50;6.50;;;;;15.78;53.62;101080.81;4934974;28;46015;-58
2023/04/27 01:36:55;;;;;;;;;11.25;9.50;;;;;15.75;53.95;101080.47;4935163;28;45379;-58
2023/04/27 01:39:20;;;;;;;;;7.25;6.00;;;;;15.56;54.64;101084.16;4955374;28;45374;-58
2023/04/27 01:41:46;;;;;;;;;9.25;8.50;;;;;15.51;55.05;101080.41;4949883;28;45418;-58
2023/04/27 01:44:11;;;;;;;;;8.00;8.00;;;;;15.36;55.64;101067.03;4935090;28;46110;-62
2023/04/27 01:46:37;;;;;;;;;8.50;8.00;;;;;15.50;56.80;101067.66;4934986;28;45403;-58
2023/04/27 01:49:02;;;;;;;;;7.50;7.50;;;;;15.61;57.20;101072.38;4949959;28;45372;-58
2023/04/27 01:51:28;;;;;;;;;12.00;12.00;;;;;15.62;56.45;101054.69;4935183;28;45451;-58
2023/04/27 01:53:53;;;;;;;;;8.50;8.50;;;;;15.61;54.46;101064.06;4935207;28;45418;-58
2023/04/27 01:56:19;;;;;;;;;10.00;7.75;;;;;15.51;56.44;101048.06;4950109;28;45803;-63
2023/04/27 01:58:45;;;;;;;;;7.25;7.25;;;;;15.50;56.05;101038.09;4934741;28;45539;-58
2023/04/27 02:01:10;;;;;;;;;8.00;7.20;;;;;15.59;56.04;101055.19;4935470;28;45463;-58
2023/04/27 02:03:36;;;;;;;;;9.00;8.00;;;;;15.56;55.25;101047.34;4934604;28;46476;-58
2023/04/27 02:06:01;;;;;;;;;12.50;11.75;;;;;15.63;56.33;101058.31;4949677;28;45851;-58
2023/04/27 02:08:27;;;;;;;;;7.50;6.75;;;;;15.63;56.25;101055.53;4934943;28;45354;-57
2023/04/27 02:10:52;;;;;;;;;9.75;9.00;;;;;15.71;56.20;101063.50;4934883;28;45396;-59
2023/04/27 02:13:17;;;;;;;;;7.75;7.75;;;;;15.74;56.14;101070.47;4934967;28;46213;-58
2023/04/27 02:15:43;;;;;;;;;10.25;10.25;;;;;15.67;55.20;101051.19;4933064;28;45382;-58
2023/04/27 02:18:09;;;;;;;;;8.50;7.50;;;;;15.74;56.05;101057.47;4934733;28;45476;-58
2023/04/27 02:20:34;;;;;;;;;7.25;6.00;;;;;15.75;56.51;101052.78;4935099;28;45310;-58
2023/04/27 02:23:01;;;;;;;;;8.50;7.25;;;;;15.70;56.10;101040.50;4934138;28;45590;-58
2023/04/27 02:25:27;;;;;;;;;8.00;8.00;;;;;15.75;56.10;101048.09;4934523;28;45332;-58
2023/04/27 02:27:52;;;;;;;;;8.50;8.50;;;;;15.81;55.66;101063.72;4934389;28;45235;-58
2023/04/27 02:30:18;;;;;;;;;9.00;8.25;;;;;15.82;55.94;101051.59;4934949;28;45201;-58
2023/04/27 02:32:43;;;;;;;;;9.50;9.50;;;;;15.84;55.51;101062.41;4934232;28;45461;-58
2023/04/27 02:35:09;;;;;;;;;9.50;8.50;;;;;15.72;55.77;101056.88;4934572;28;45358;-58
2023/04/27 02:37:35;;;;;;;;;12.80;9.60;;;;;15.56;53.63;101056.50;4933489;28;45450;-58
2023/04/27 02:40:01;;;;;;;;;6.50;6.50;;;;;15.54;55.24;101061.41;5006479;28;45596;-59
2023/04/27 02:42:26;;;;;;;;;12.00;10.00;;;;;15.54;55.20;101066.94;5035670;28;45627;-59
2023/04/27 02:44:52;;;;;;;;;8.50;6.75;;;;;15.55;55.09;101062.25;5035546;28;45436;-60
2023/04/27 02:47:17;;;;;;;;;10.00;10.00;;;;;15.48;55.96;101059.59;5035826;28;45420;-58
2023/04/27 02:49:43;;;;;;;;;12.00;9.00;;;;;15.58;56.04;101061.78;5036054;28;45345;-59
2023/04/27 02:52:08;;;;;;;;;9.75;8.00;;;;;15.53;54.79;101068.03;5035645;28;46177;-59
2023/04/27 02:54:34;;;;;;;;;8.75;8.00;;;;;15.54;55.32;101071.66;5035738;28;45437;-58
2023/04/27 02:57:00;;;;;;;;;9.50;9.50;;;;;15.59;55.99;101067.06;5067732;28;45380;-59
2023/04/27 02:59:25;;;;;;;;;12.20;12.20;;;;;15.64;55.53;101073.81;5035629;28;45346;-59
2023/04/27 03:01:51;;;;;;;;;10.50;9.50;;;;;15.61;55.90;101068.75;5067831;28;48460;-59
2023/04/27 03:04:16;;;;;;;;;9.25;8.50;;;;;15.66;55.98;101072.50;5035002;28;45425;-58
2023/04/27 03:06:42;;;;;;;;;11.75;11.75;;;;;15.57;54.61;101069.25;5035449;28;45274;-58
2023/04/27 03:09:11;;;;;;;;;11.00;11.00;;;;;15.59;55.91;101069.84;5067496;28;45595;-59
2023/04/27 03:11:37;;;;;;;;;8.00;8.00;;;;;15.59;55.77;101064.31;5035142;28;46634;-59
2023/04/27 03:14:02;;;;;;;;;8.00;8.00;;;;;15.68;55.67;101067.56;5067500;28;45774;-59
2023/04/27 03:16:31;;;;;;;;;11.00;9.25;;;;;15.69;55.23;101083.09;5035010;28;45310;-59
2023/04/27 03:18:56;;;;;;;;;15.00;9.00;;;;;15.65;55.86;101064.44;5035690;28;45171;-59
2023/04/27 03:21:21;;;;;;;;;12.75;11.00;;;;;15.61;55.88;101057.69;5034572;28;45517;-59
2023/04/27 03:23:47;;;;;;;;;10.75;10.75;;;;;15.68;55.00;101073.09;5033851;28;45188;-59
2023/04/27 03:26:13;;;;;;;;;11.25;11.25;;;;;15.57;56.19;101063.72;5035035;28;45149;-59
2023/04/27 03:28:38;;;;;;;;;14.25;13.00;;;;;15.68;56.49;101072.25;5067730;28;45268;-59
2023/04/27 03:31:11;;;;;;;;;12.25;10.50;;;;;15.67;56.08;101071.44;5034885;28;45608;-59
2023/04/27 03:33:36;;;;;;;;;14.40;12.20;;;;;15.69;56.13;101072.03;5034561;28;45424;-59
2023/04/27 03:36:03;;;;;;;;;14.75;13.50;;;;;15.71;56.28;101066.25;5034675;28;45613;-59
2023/04/27 03:38:28;;;;;;;;;12.40;12.40;;;;;15.59;56.22;101058.78;5028312;28;45541;-59
2023/04/27 03:40:54;;;;;;;;;14.00;14.00;;;;;15.64;56.21;101069.13;4932375;28;46106;-59
2023/04/27 03:43:20;;;;;;;;;12.00;12.00;;;;;15.66;56.46;101069.75;4933563;28;45359;-58
2023/04/27 03:45:45;;;;;;;;;18.20;14.00;;;;;15.68;56.41;101067.56;4933651;28;45456;-59
2023/04/27 03:48:11;;;;;;;;;14.25;13.25;;;;;15.67;56.48;101068.66;4933742;28;45405;-59
2023/04/27 03:50:37;;;;;;;;;11.80;11.80;;;;;15.58;55.18;101059.84;4933438;28;45683;-59
2023/04/27 03:53:02;;;;;;;;;12.00;12.00;;;;;15.50;55.68;101060.22;4933422;28;45454;-57
2023/04/27 03:55:28;;;;;;;;;14.50;13.00;;;;;15.47;55.50;101066.19;4933435;28;45359;-58
2023/04/27 03:57:53;;;;;;;;;15.25;13.50;;;;;15.48;56.83;101064.28;4933970;28;45786;-58
2023/04/27 04:00:19;;;;;;;;;13.50;11.75;;;;;15.47;55.42;101066.19;4933174;28;46085;-57
2023/04/27 04:02:45;;;;;;;;;10.75;10.75;;;;;15.42;55.42;101060.56;4917925;28;45397;-59
2023/04/27 04:05:11;;;;;;;;;15.00;15.00;;;;;15.34;56.22;101066.41;4933548;28;45215;-58
2023/04/27 04:07:36;;;;;;;;;17.00;15.00;;;;;15.37;56.50;101072.31;4932034;28;45622;-55
2023/04/27 04:10:02;;;;;;;;;14.75;12.75;;;;;15.30;55.21;101066.91;4948066;28;46337;-56
2023/04/27 04:12:28;;;;;;;;;12.80;12.80;;;;;15.23;55.47;101077.22;4933156;28;45175;-56
2023/04/27 04:14:54;;;;;;;;;12.25;12.00;;;;;15.26;56.06;101067.59;4948631;28;45192;-56
2023/04/27 04:17:20;;;;;;;;;12.50;12.00;;;;;15.28;56.65;101060.78;4933700;28;45706;-56
2023/04/27 04:19:45;;;;;;;;;14.00;13.20;;;;;15.19;56.78;101070.47;4932988;28;46134;-57
2023/04/27 04:22:11;;;;;;;;;13.00;12.25;;;;;15.13;56.13;101055.66;4933516;28;45457;-59
2023/04/27 04:24:36;;;;;;;;;17.00;13.00;;;;;15.24;56.56;101073.38;4933422;28;45366;-56
2023/04/27 04:27:02;;;;;;;;;15.00;11.50;;;;;15.28;56.71;101074.59;4933353;28;45417;-58
2023/04/27 04:29:28;;;;;;;;;15.00;12.00;;;;;15.24;56.12;101076.13;4935926;28;46065;-58
2023/04/27 04:31:55;;;;;;;;;13.00;13.00;;;;;15.30;56.22;101077.97;4935549;28;45349;-57
2023/04/27 04:34:20;;;;;;;;;13.00;11.60;;;;;15.23;55.67;101079.13;4950675;28;45374;-56
2023/04/27 04:36:46;;;;;;;;;15.75;12.25;;;;;15.12;56.34;101072.47;4935480;28;45418;-58
2023/04/27 04:39:12;;;;;;;;;13.00;12.75;;;;;15.10;55.19;101053.34;4956938;28;46091;-57
2023/04/27 04:41:37;;;;;;;;;16.60;14.00;;;;;15.10;54.44;101058.06;5069385;28;45387;-58
2023/04/27 04:44:04;;;;;;;;;10.25;10.00;;;;;15.11;55.35;101051.44;5069550;28;45194;-59
2023/04/27 04:46:29;;;;;;;;;16.20;13.60;;;;;15.15;55.34;101061.78;5037615;28;45529;-58
2023/04/27 04:48:55;;;;;;;;;12.25;11.00;;;;;15.10;55.20;101052.53;5036981;28;46265;-58
2023/04/27 04:51:20;;;;;;;;;14.75;13.25;;;;;15.17;55.76;101065.16;5037204;28;45396;-58
2023/04/27 04:53:46;;;;;;;;;13.00;13.00;;;;;15.26;56.13;101056.53;5037034;28;45373;-58
2023/04/27 04:56:12;;;;;;;;;11.75;10.75;;;;;15.24;55.51;101053.16;5037786;28;45312;-58
2023/04/27 04:58:37;;;;;;;;;12.00;11.75;;;;;15.29;55.99;101053.28;5037011;28;46482;-59
2023/04/27 05:01:03;;;;;;;;;14.00;12.75;;;;;15.35;56.26;101055.13;5036637;28;45338;-58
2023/04/27 05:03:29;;;;;;;;;13.75;12.00;;;;;15.37;54.63;101060.41;5048578;28;45333;-59
2023/04/27 05:05:54;;;;;;;;;16.50;12.25;;;;;15.27;55.38;101049.94;4923660;28;45340;-59
2023/04/27 05:08:20;;;;;;;;;10.75;10.75;;;;;15.36;55.76;101064.28;4935238;28;46130;-58
2023/04/27 05:10:52;;;;;;;;;16.25;13.00;;;;;15.35;55.26;101060.66;4933910;28;45341;-58
2023/04/27 05:13:17;;;;;;;;;10.80;10.20;;;;;15.35;55.32;101059.78;4935851;28;45426;-58
2023/04/27 05:15:43;;;;;;;;;9.00;9.00;;;;;15.35;55.63;101060.66;4934548;28;45503;-58
2023/04/27 05:18:08;;;;;;;;;16.25;13.00;;;;;15.43;55.45;101068.59;4935124;28;45611;-59
2023/04/27 05:20:34;;;;;;;;;13.00;12.50;;;;;15.31;55.50;101056.66;4935595;28;45478;-59
2023/04/27 05:23:00;;;;;;;;;14.00;12.00;;;;;15.32;54.67;101053.66;4935203;28;45381;-59
2023/04/27 05:25:28;;;;;;;;;16.00;13.25;;;;;15.48;54.70;101073.41;4935815;28;45576;-59
2023/04/27 05:27:54;;;;;;;;;15.20;14.00;;;;;15.51;55.05;101074.88;4933715;28;46155;-59
2023/04/27 05:30:19;;;;;;;;;15.75;14.75;;;;;15.51;54.87;101069.34;4935324;28;45525;-59
2023/04/27 05:32:45;;;;;;;;;14.00;12.00;;;;;15.53;54.59;101072.72;4935156;28;45452;-59
2023/04/27 05:35:10;;;;;;;;;17.75;13.25;;;;;15.48;54.92;101067.06;4935430;28;45540;-60
2023/04/27 05:37:36;;;;;;;;;19.75;17.25;;;;;15.54;55.03;101069.69;4935287;28;45711;-60
2023/04/27 05:40:04;;;;;;;;;17.00;15.00;;;;;15.35;54.52;101033.00;4976264;28;45433;-59
2023/04/27 05:42:30;;;;;;;;;14.00;12.80;;;;;15.51;54.69;101061.03;5036717;28;45335;-60
2023/04/27 05:44:55;;;;;;;;;15.25;14.25;;;;;15.36;53.59;101045.75;5036856;28;45152;-60
2023/04/27 05:47:21;;;;;;;;;14.75;14.00;;;;;15.40;54.55;101049.72;5034956;28;45231;-60
2023/04/27 05:49:51;;;;;;;;;15.25;15.00;;;;;15.40;53.33;101052.50;5068721;28;45237;-60
2023/04/27 05:52:17;;;;;;;;;15.00;14.00;;;;;15.45;54.70;101066.47;5036773;28;45988;-60
2023/04/27 05:54:46;;;;;;;;;18.25;15.50;;;;;15.43;55.38;101059.47;5068559;28;45487;-60
2023/04/27 05:57:11;;;;;;;;;14.40;14.40;;;;;15.47;55.30;101057.09;5068365;28;45504;-60
2023/04/27 05:59:37;;;;;;;;;19.75;16.50;;;;;15.41;54.75;101059.72;5068877;28;45317;-60
2023/04/27 06:02:02;;;;;;;;;13.50;12.75;;;;;15.41;54.68;101062.47;5068526;28;45376;-60
2023/04/27 06:04:28;;;;;;;;;14.50;14.00;;;;;15.40;55.24;101055.25;5036698;28;45608;-59
2023/04/27 06:06:55;;;;;;;;;13.25;13.00;;;;;15.48;55.39;101062.34;5010387;27;45871;-60
2023/04/27 06:09:20;;;;;;;;;17.20;14.60;;;;;15.53;55.16;101069.97;4930912;28;45460;-60
2023/04/27 06:11:46;;;;;;;;;14.25;11.75;;;;;15.59;54.82;101069.84;4934982;28;45400;-59
2023/04/27 06:14:12;;;;;;;;;14.00;13.50;;;;;15.65;54.72;101067.22;4935282;28;45570;-57
2023/04/27 06:16:39;;;;;;;;;16.60;16.40;;;;;15.65;54.78;101064.44;4935011;28;46632;-59
2023/04/27 06:19:05;;;;;;;;;13.60;12.60;;;;;15.71;54.73;101069.84;4934611;28;45392;-58
2023/04/27 06:21:33;;;;;;;;;16.00;15.00;;;;;15.71;54.64;101056.00;4965669;28;45326;-59
2023/04/27 06:23:59;;;;;;;;;18.20;16.40;;;;;15.84;54.56;101068.78;4934957;28;45543;-59
2023/04/27 06:26:25;;;;;;;;;15.40;13.00;;;;;15.84;54.04;101057.72;4965104;28;47607;-59
2023/04/27 06:28:51;;;;;;;;;15.75;14.00;;;;;15.76;53.84;101055.31;4934675;28;45409;-58
2023/04/27 06:31:16;;;;;;;;;18.00;16.50;;;;;15.74;53.11;101054.69;4965802;28;45948;-58
2023/04/27 06:33:41;;;;;;;;;15.00;14.50;;;;;15.84;54.04;101063.25;4934848;28;45499;-59
2023/04/27 06:36:07;;;;;;;;;15.25;15.25;;;;;15.85;53.91;101053.88;4934732;28;46294;-60
2023/04/27 06:38:33;;;;;;;;;15.50;14.00;;;;;15.91;54.13;101065.06;4949347;28;45485;-58
2023/04/27 06:40:58;;;;;;;;;16.50;16.50;;;;;15.96;53.73;101060.53;5008296;28;45405;-58
2023/04/27 06:43:24;;;;;;;;;17.75;14.00;;;;;15.97;52.97;101067.72;5035701;28;45584;-58
2023/04/27 06:45:49;;;;;;;;;14.25;13.00;;;;;15.93;53.28;101074.84;5035983;28;45486;-58
2023/04/27 06:48:15;;;;;;;;;17.00;14.00;;;;;15.89;53.04;101079.13;5035651;28;45323;-58
2023/04/27 06:50:41;;;;;;;;;13.60;12.80;;;;;15.88;52.91;101079.38;5034472;28;45416;-58
2023/04/27 06:53:07;;;;;;;;;17.00;13.80;;;;;15.89;52.92;101079.13;5035896;28;45300;-58
2023/04/27 06:55:33;;;;;;;;;13.00;13.00;;;;;15.85;53.02;101076.00;5034023;28;46462;-58
2023/04/27 06:57:58;;;;;;;;;20.25;17.25;;;;;15.90;52.64;101078.06;5035607;28;45164;-59
2023/04/27 07:00:23;;;;;;;;;18.50;16.00;;;;;15.94;52.99;101073.78;5035554;28;45424;-57
2023/04/27 07:02:50;;;;;;;;;14.75;13.50;;;;;16.03;53.04;101077.03;5035647;28;45365;-58
2023/04/27 07:05:15;;;;;;;;;22.00;18.40;;;;;16.08;52.60;101082.69;5035335;28;45421;-61
2023/04/27 07:07:41;;;;;;;;;20.50;19.25;;;;;16.15;52.38;101077.00;5034936;28;45378;-60
2023/04/27 07:10:07;;;;;;;;;18.50;13.75;;;;;16.23;52.06;101076.63;5035772;28;45477;-58
2023/04/27 07:12:33;;;;;;;;;30.40;19.60;;;;;16.25;51.76;101068.97;5035282;28;45267;-58
2023/04/27 07:14:58;;;;;;;;;20.25;15.25;;;;;16.26;52.13;101072.56;5035234;28;46049;-57
2023/04/27 07:17:24;;;;;;;;;14.00;12.50;;;;;16.31;51.61;101055.19;5035295;28;45747;-57
2023/04/27 07:19:50;;;;;;;;;21.75;15.50;;;;;16.32;51.31;101054.97;5035349;28;45740;-56
2023/04/27 07:22:15;;;;;;;;;15.50;14.75;;;;;16.30;51.82;101054.38;5034436;28;45504;-56
2023/04/27 07:24:41;;;;;;;;;17.50;15.00;;;;;16.27;51.63;101038.22;5034650;28;47250;-57
2023/04/27 07:27:07;;;;;;;;;15.75;11.25;;;;;16.34;51.55;101050.00;5035430;28;45366;-58
2023/04/27 07:29:32;;;;;;;;;16.25;14.75;;;;;16.31;50.13;101056.06;5035356;28;45396;-56
2023/04/27 07:31:58;;;;;;;;;14.75;13.00;;;;;16.36;50.92;101056.16;5035176;28;45382;-56
2023/04/27 07:34:23;;;;;;;;;13.00;12.25;;;;;16.30;49.53;101046.06;5035151;28;45393;-59
2023/04/27 07:36:49;;;;;;;;;21.50;18.00;;;;;16.48;51.20;101071.91;5034742;28;45833;-58
2023/04/27 07:39:15;;;;;;;;;20.00;16.80;;;;;16.55;51.36;101067.09;5035281;28;45411;-59
2023/04/27 07:41:42;;;;;;;;;19.20;16.00;;;;;16.56;49.64;101067.94;4914587;28;45410;-57
2023/04/27 07:44:08;;;;;;;;;17.50;14.75;;;;;16.66;50.09;101052.34;4914420;28;46845;-59
2023/04/27 07:46:33;;;;;;;;;13.75;13.75;;;;;16.63;46.96;101055.63;4914931;28;45327;-57
2023/04/27 07:48:59;;;;;;;;;15.00;13.25;;;;;16.73;49.84;101057.78;4914649;28;45328;-58
2023/04/27 07:51:25;;;;;;;;;15.75;13.50;;;;;16.83;49.88;101057.13;4914626;28;45373;-57
2023/04/27 07:53:51;;;;;;;;;12.80;12.80;;;;;16.86;49.18;101050.25;4944796;28;47479;-58
2023/04/27 07:56:16;;;;;;;;;10.25;8.00;;;;;16.94;49.50;101055.41;4914881;28;45285;-58
2023/04/27 07:58:42;;;;;;;;;12.00;12.00;;;;;16.94;49.32;101052.63;4935616;28;45544;-57
2023/04/27 08:01:08;;;;;;;;;8.75;7.25;;;;;17.00;48.44;101056.34;4942840;28;45520;-55
2023/04/27 08:03:33;;;;;;;;;8.75;8.75;;;;;17.03;49.12;101055.88;4918324;28;45409;-54
2023/04/27 08:05:58;;;;;;;;;9.00;8.00;;;;;17.04;48.54;101066.72;4928099;28;45299;-53
2023/04/27 08:08:25;;;;;;;;;14.50;12.00;;;;;17.06;48.77;101060.91;4946659;28;45583;-56
2023/04/27 08:10:50;;;;;;;;;12.80;10.80;;;;;17.12;47.14;101056.34;4940137;28;45394;-51
2023/04/27 08:13:15;;;;;;;;;13.50;13.25;;;;;17.18;48.23;101063.66;4982016;28;46378;-53
2023/04/27 08:15:41;;;;;;;;;9.75;8.25;;;;;17.20;47.25;101067.03;4982509;28;46003;-59
2023/04/27 08:18:06;;;;;;;;;6.25;6.25;;;;;17.21;48.14;101068.69;4952498;28;45426;-59
2023/04/27 08:20:32;;;;;;;;;8.50;8.50;;;;;17.20;48.10;101073.38;4951618;28;45693;-59
2023/04/27 08:22:58;;;;;;;;;9.50;8.25;;;;;17.19;47.80;101071.72;4951116;28;45398;-59
2023/04/27 08:25:23;;;;;;;;;7.75;7.75;;;;;17.19;46.42;101066.16;4952535;28;45536;-59
2023/04/27 08:27:48;;;;;;;;;17.25;11.50;;;;;17.13;43.94;101053.28;4952863;28;45239;-59
2023/04/27 08:30:14;;;;;;;;;7.25;6.25;;;;;17.14;47.10;101045.81;4968753;28;45404;-57
2023/04/27 08:32:40;;;;;;;;;9.75;9.75;;;;;17.07;46.50;101032.97;4930884;28;45496;-58
2023/04/27 08:35:06;;;;;;;;;10.50;8.00;;;;;17.22;47.49;101036.28;4932290;28;45370;-59
2023/04/27 08:37:31;;;;;;;;;6.80;6.80;;;;;17.29;47.28;101039.72;4932766;28;45697;-61
2023/04/27 08:39:57;;;;;;;;;10.50;8.25;;;;;17.27;46.61;101041.88;4949211;28;46029;-60
2023/04/27 08:42:22;;;;;;;;;10.00;10.00;;;;;17.37;48.00;101041.22;5033704;28;46663;-58
2023/04/27 08:44:47;;;;;;;;;9.75;9.50;;;;;17.41;46.93;101039.66;5034259;28;45380;-59
2023/04/27 08:47:13;;;;;;;;;8.00;7.75;;;;;17.55;47.53;101041.00;5066495;28;45387;-59
2023/04/27 08:49:40;;;;;;;;;8.75;7.25;;;;;17.62;45.66;101046.41;4965683;28;45484;-58
2023/04/27 08:52:15;;;;;;;;;11.80;9.80;;;;;17.66;48.10;101035.63;4939189;28;46271;-60
2023/04/27 08:54:41;;;;;;;;;10.60;10.00;;;;;17.78;47.24;101028.06;4981884;28;45766;-59
2023/04/27 08:57:10;;;;;;;;;10.50;10.50;;;;;17.76;45.99;101027.44;4951520;28;45767;-57
2023/04/27 08:59:36;;;;;;;;;11.40;9.60;;;;;17.89;48.00;101029.03;4982255;28;45309;-59
2023/04/27 09:02:01;;;;;;;;;9.25;9.25;;;;;17.94;47.66;101033.84;4950169;28;46933;-58
2023/04/27 09:04:36;;;;;;;;;8.00;8.00;;;;;17.99;46.24;101034.72;4968931;28;45828;-59
2023/04/27 09:07:15;;;;;;;;;11.00;9.00;;;;;18.08;45.27;101031.56;4962411;28;45387;-58
2023/04/27 09:09:41;;;;;;;;;8.00;7.20;;;;;18.11;47.53;101028.28;4931316;28;45388;-58
2023/04/27 09:12:20;;;;;;;;;10.00;10.00;;;;;18.10;48.03;101007.16;4958308;28;45671;-58
2023/04/27 09:15:00;;;;;;;;;9.40;9.40;;;;;18.30;46.08;101031.59;4953191;28;45318;-58
2023/04/27 09:17:26;;;;;;;;;8.40;8.40;;;;;18.19;46.21;101025.06;4934159;28;45606;-59
2023/04/27 09:20:05;;;;;;;;;11.00;8.40;;;;;18.33;47.55;101033.00;4934858;28;45504;-59
2023/04/27 09:22:30;;;;;;;;;11.60;9.60;;;;;18.38;47.62;101030.31;4933905;28;47100;-58
2023/04/27 09:24:56;;;;;;;;;8.25;8.25;;;;;18.43;47.13;101036.75;4958262;28;45365;-58
2023/04/27 09:27:22;;;;;;;;;9.00;8.25;;;;;18.51;46.86;101032.69;4988169;28;45322;-59
2023/04/27 09:29:47;;;;;;;;;9.60;9.00;;;;;18.57;46.72;101030.81;4954047;28;45244;-58
2023/04/27 09:32:17;;;;;;;;;7.75;6.50;;;;;18.54;46.56;101036.91;4953068;28;45338;-59
2023/04/27 09:34:43;;;;;;;;;11.40;8.60;;;;;18.56;47.30;101032.75;4953165;28;45766;-59
2023/04/27 09:37:09;;;;;;;;;9.50;7.50;;;;;18.70;46.78;101035.16;4953061;28;45449;-59
2023/04/27 09:39:35;;;;;;;;;7.25;7.25;;;;;18.74;45.73;101032.69;4939219;28;45478;-59
2023/04/27 09:42:01;;;;;;;;;8.40;7.00;;;;;18.74;46.00;101025.19;5001922;28;45554;-58
2023/04/27 09:44:27;;;;;;;;;9.00;8.00;;;;;18.79;46.86;101022.47;4978811;28;45637;-57
2023/04/27 09:46:52;;;;;;;;;8.20;7.20;;;;;18.88;46.91;101005.34;4958198;28;45418;-58
2023/04/27 09:49:18;;;;;;;;;5.50;5.50;;;;;19.00;47.12;101007.94;4949903;28;45549;-59
2023/04/27 09:51:43;;;;;;;;;8.25;7.25;;;;;19.12;47.33;101016.16;4952111;28;46320;-58
2023/04/27 09:54:09;;;;;;;;;7.75;7.75;;;;;19.17;45.79;101013.44;4933748;28;45649;-59
2023/04/27 09:56:41;;;;;;;;;11.00;9.25;;;;;19.28;44.71;101015.22;4976275;28;45802;-58
2023/04/27 09:59:09;;;;;;;;;11.00;9.00;;;;;19.14;44.35;101005.59;4949197;28;45643;-59
2023/04/27 10:01:50;;;;;;;;;10.60;10.60;;;;;19.28;45.76;101020.78;4933767;28;46574;-60
2023/04/27 10:04:29;;;;;;;;;9.00;7.20;;;;;19.46;47.06;101024.25;4950403;28;45929;-62
2023/04/27 10:07:00;;;;;;;;;8.00;8.00;;;;;19.57;44.23;101026.03;4984042;28;46009;-59
2023/04/27 10:09:29;;;;;;;;;6.80;6.80;;;;;19.55;44.47;101019.03;4968842;28;45910;-57
2023/04/27 10:11:55;;;;;;;;;7.00;7.00;;;;;19.61;43.85;101018.81;4944836;28;46372;-57
2023/04/27 10:14:21;;;;;;;;;9.00;8.25;;;;;19.63;43.35;101015.75;4950030;28;45611;-58
2023/04/27 10:16:57;;;;;;;;;6.20;6.20;;;;;19.69;45.96;101008.31;4974357;28;45454;-60
2023/04/27 10:19:23;;;;;;;;;6.80;6.20;;;;;19.63;43.53;101002.69;4932392;28;45505;-59
2023/04/27 10:22:06;;;;;;;;;8.00;7.00;;;;;19.64;46.16;101001.56;4932011;28;46629;-59
2023/04/27 10:24:36;;;;;;;;;10.40;7.40;;;;;19.69;45.05;100997.16;4945286;28;45394;-60
2023/04/27 10:27:06;;;;;;;;;6.00;5.80;;;;;19.63;45.72;100994.34;4946031;28;45362;-60
2023/04/27 10:29:42;;;;;;;;;6.00;4.80;;;;;19.36;44.61;100964.63;4932611;28;45396;-61
2023/04/27 10:32:12;;;;;;;;;6.00;6.00;;;;;19.57;50.62;100994.56;4988556;28;46498;-60
2023/04/27 10:34:38;;;;;;;;;5.80;5.80;;;;;19.52;47.14;100998.13;4952655;28;45509;-61
2023/04/27 10:37:05;;;;;;;;;6.60;6.40;;;;;19.55;46.81;100997.63;4983760;28;45329;-60
2023/04/27 10:39:37;;;;;;;;;16.20;14.40;;;;;19.61;47.07;100998.50;4984504;28;45399;-60
2023/04/27 10:42:02;;;;;;;;;6.20;6.20;;;;;19.51;43.91;100988.13;4968008;28;46211;-60
2023/04/27 10:44:29;;;;;;;;;6.00;5.00;;;;;19.52;45.86;100992.56;4964595;28;45434;-58
2023/04/27 10:46:56;;;;;;;;;7.00;7.00;;;;;19.55;46.79;100996.78;4939432;28;45636;-60
2023/04/27 10:49:22;;;;;;;;;6.40;6.40;;;;;19.53;46.02;100993.44;4936231;28;45456;-60
2023/04/27 10:51:48;;;;;;;;;8.00;5.00;;;;;19.59;46.62;100997.94;4930782;28;48312;-59
2023/04/27 10:54:14;;;;;;;;;4.40;3.20;;;;;19.65;44.20;100999.66;5056552;28;45552;-60
2023/04/27 10:56:39;;;;;;;;;5.50;5.50;;;;;19.81;46.60;100994.16;5032473;28;45525;-62
2023/04/27 10:59:05;;;;;;;;;7.00;7.00;;;;;19.98;46.26;100988.47;5033825;28;45580;-59
2023/04/27 11:01:30;;;;;;;;;7.75;7.75;;;;;20.16;46.14;100988.00;5034303;28;46014;-62
2023/04/27 11:04:00;;;;;;;;;6.00;6.00;;;;;20.28;45.40;100987.78;5010632;28;46571;-63
2023/04/27 11:06:27;;;;;;;;;9.00;8.00;;;;;20.33;45.18;100984.16;5033008;28;45512;-61
2023/04/27 11:08:52;;;;;;;;;8.40;6.60;;;;;20.47;45.49;100973.38;5034936;28;45306;-60
2023/04/27 11:11:21;;;;;;;;;7.00;7.00;;;;;20.63;44.93;100951.94;5034393;28;45450;-59
2023/04/27 11:13:51;;;;;;;;;10.80;10.40;;;;;20.90;45.11;100959.28;5034755;28;45441;-62